Time;durP1;ratioP1;P1;durP2;ratioP2;P2;SDS_P1;SDS_P2;PMS_P1;PMS_P2;Temp;Humidity;BMP_temperature;BMP_pressure;BME280_temperature;BME280_humidity;BME280_pressure;Samples;Min_cycle;Max_cycle;Signal;HPM_P1;HPM_P2
2022/04/18 00:00:20;;;;;;;14.13;7.60;;;9.70;56.80;;;;;;5017971;28;21797;-70
2022/04/18 00:02:48;;;;;;;8.17;5.10;;;9.60;57.10;;;;;;5017704;28;20491;-70
2022/04/18 00:05:16;;;;;;;12.60;6.60;;;9.50;57.20;;;;;;5017734;28;20463;-70
2022/04/18 00:07:44;;;;;;;12.50;5.60;;;9.50;57.30;;;;;;5015982;28;20507;-70
2022/04/18 00:10:12;;;;;;;8.63;4.73;;;9.40;57.50;;;;;;5018496;28;20449;-70
2022/04/18 00:12:40;;;;;;;9.80;5.50;;;9.30;57.60;;;;;;5011219;28;20853;-70
2022/04/18 00:15:10;;;;;;;12.37;7.00;;;9.30;57.70;;;;;;5013735;28;20461;-69
2022/04/18 00:17:38;;;;;;;13.50;8.50;;;9.30;57.90;;;;;;5012544;28;20457;-70
2022/04/18 00:20:07;;;;;;;15.47;8.60;;;9.30;58.10;;;;;;5015350;28;20476;-70
2022/04/18 00:22:35;;;;;;;11.40;6.63;;;9.30;58.20;;;;;;5015607;28;20938;-70
2022/04/18 00:25:03;;;;;;;11.27;6.40;;;9.30;58.10;;;;;;5022053;28;20459;-70
2022/04/18 00:27:31;;;;;;;10.37;5.40;;;9.30;58.20;;;;;;5017812;28;21115;-70
2022/04/18 00:29:59;;;;;;;10.73;5.90;;;9.30;58.30;;;;;;5023333;28;20942;-70
2022/04/18 00:32:29;;;;;;;11.60;6.73;;;9.20;58.50;;;;;;5015565;28;20486;-69
2022/04/18 00:34:57;;;;;;;12.50;7.50;;;9.20;58.60;;;;;;5016841;28;20543;-70
2022/04/18 00:37:25;;;;;;;17.77;7.07;;;9.20;58.60;;;;;;5016167;28;20463;-70
2022/04/18 00:39:53;;;;;;;14.07;7.73;;;9.20;58.70;;;;;;5013578;28;20484;-69
2022/04/18 00:42:21;;;;;;;11.20;6.00;;;9.20;58.80;;;;;;5015958;28;20495;-70
2022/04/18 00:44:49;;;;;;;12.87;8.10;;;9.20;58.90;;;;;;5016395;28;20854;-70
2022/04/18 00:47:17;;;;;;;11.80;7.67;;;9.20;58.70;;;;;;5018326;28;21050;-70
2022/04/18 00:49:46;;;;;;;9.60;6.10;;;9.10;58.80;;;;;;5013192;28;20471;-70
2022/04/18 00:52:15;;;;;;;10.87;6.73;;;9.00;58.90;;;;;;5010879;28;20519;-69
2022/04/18 00:54:44;;;;;;;10.23;5.90;;;9.00;59.00;;;;;;5017566;28;20488;-70
2022/04/18 00:57:12;;;;;;;10.27;6.10;;;8.90;59.10;;;;;;5016848;28;20459;-70
2022/04/18 00:59:40;;;;;;;15.50;8.43;;;8.90;59.20;;;;;;5019212;28;21047;-70
2022/04/18 01:02:13;;;;;;;27.60;12.77;;;8.90;59.30;;;;;;5033885;28;20515;-70
2022/04/18 01:04:41;;;;;;;13.63;7.87;;;8.90;59.40;;;;;;5014360;28;20489;-71
2022/04/18 01:07:12;;;;;;;11.23;6.93;;;8.90;59.40;;;;;;5032008;28;20501;-70
2022/04/18 01:09:40;;;;;;;11.63;6.00;;;8.90;59.50;;;;;;5022485;28;20847;-70
2022/04/18 01:12:09;;;;;;;9.10;5.03;;;8.90;59.50;;;;;;5035136;28;20482;-70
2022/04/18 01:14:54;;;;;;;7.93;5.37;;;8.90;59.50;;;;;;5017711;28;20464;-70
2022/04/18 01:17:40;;;;;;;8.73;5.00;;;8.90;59.60;;;;;;5016916;28;20475;-70
2022/04/18 01:20:19;;;;;;;9.73;5.43;;;8.90;59.60;;;;;;5014365;28;20480;-70
2022/04/18 01:23:09;;;;;;;8.20;5.10;;;8.80;59.60;;;;;;5017213;28;20559;-70
2022/04/18 01:29:01;;;;;;;9.40;5.80;;;8.70;59.70;;;;;;5030303;28;20882;-70
2022/04/18 01:31:33;;;;;;;12.00;5.90;;;8.60;59.70;;;;;;5018795;28;21278;-70
2022/04/18 01:34:02;;;;;;;15.90;5.50;;;8.50;59.90;;;;;;5015194;28;20507;-69
2022/04/18 01:36:31;;;;;;;9.63;5.35;;;8.40;59.90;;;;;;5018149;28;20251;-70
2022/04/18 01:39:03;;;;;;;26.55;15.15;;;8.30;60.10;;;;;;5019908;28;20279;-70
2022/04/18 01:41:31;;;;;;;16.47;9.10;;;8.30;60.10;;;;;;5024737;28;20208;-69
2022/04/18 01:43:59;;;;;;;13.50;8.52;;;8.20;60.10;;;;;;5032991;28;20491;-70
2022/04/18 01:46:28;;;;;;;10.43;5.30;;;8.20;60.30;;;;;;5010498;28;20239;-69
2022/04/18 01:48:56;;;;;;;10.60;5.63;;;8.10;60.30;;;;;;5029896;28;20463;-69
2022/04/18 01:51:24;;;;;;;10.55;6.82;;;8.10;60.50;;;;;;5019400;28;21179;-70
2022/04/18 01:53:59;;;;;;;16.23;10.13;;;8.10;60.60;;;;;;5012731;28;20291;-70
2022/04/18 01:56:28;;;;;;;11.70;8.00;;;8.00;60.70;;;;;;5030297;28;21338;-70
2022/04/18 01:58:56;;;;;;;15.10;9.17;;;8.00;60.70;;;;;;5029289;28;21460;-68
2022/04/18 02:01:24;;;;;;;13.38;9.00;;;7.90;60.70;;;;;;5018945;28;20575;-71
2022/04/18 02:03:52;;;;;;;14.10;9.38;;;7.90;60.70;;;;;;5014069;28;20292;-70
2022/04/18 02:06:20;;;;;;;18.70;10.10;;;7.80;60.80;;;;;;5030238;28;20254;-71
2022/04/18 02:08:48;;;;;;;10.05;6.25;;;7.70;60.80;;;;;;5017367;28;20842;-70
2022/04/18 02:11:20;;;;;;;14.95;8.88;;;7.60;60.90;;;;;;5034581;28;20875;-70
2022/04/18 02:13:49;;;;;;;16.25;10.52;;;7.60;61.00;;;;;;5012760;28;20240;-70
2022/04/18 02:16:18;;;;;;;12.20;7.70;;;7.50;61.10;;;;;;5010577;28;20249;-70
2022/04/18 02:18:48;;;;;;;16.58;8.07;;;7.50;61.20;;;;;;5025784;28;20198;-70
2022/04/18 02:21:17;;;;;;;24.80;15.25;;;7.40;61.30;;;;;;5032097;28;20209;-70
2022/04/18 02:23:45;;;;;;;19.05;12.75;;;7.40;61.40;;;;;;5026368;28;20242;-70
2022/04/18 02:26:13;;;;;;;17.75;11.25;;;7.30;61.50;;;;;;5012840;28;20221;-70
2022/04/18 02:28:44;;;;;;;17.45;9.93;;;7.30;61.50;;;;;;5013894;28;20670;-70
2022/04/18 02:31:14;;;;;;;18.80;11.57;;;7.20;61.60;;;;;;5030594;28;20269;-70
2022/04/18 02:33:43;;;;;;;13.68;7.88;;;7.20;61.70;;;;;;5025278;28;20230;-71
2022/04/18 02:36:11;;;;;;;22.45;12.57;;;7.20;61.70;;;;;;5028799;28;20222;-70
2022/04/18 02:38:39;;;;;;;11.38;7.28;;;7.10;61.80;;;;;;5017881;28;20256;-70
2022/04/18 02:41:07;;;;;;;11.93;7.70;;;7.00;61.90;;;;;;5032916;28;20229;-70
2022/04/18 02:43:35;;;;;;;18.58;11.27;;;7.00;62.00;;;;;;5013786;28;20222;-70
2022/04/18 02:46:08;;;;;;;16.20;9.65;;;6.90;62.00;;;;;;5021329;28;20230;-70
2022/04/18 02:48:44;;;;;;;22.25;12.95;;;6.90;62.20;;;;;;5028619;28;20581;-70
2022/04/18 02:51:17;;;;;;;23.13;12.55;;;6.80;62.20;;;;;;5031065;28;20205;-70
2022/04/18 02:53:45;;;;;;;12.15;7.00;;;6.80;62.40;;;;;;5011647;28;20786;-70
2022/04/18 02:56:13;;;;;;;11.85;6.80;;;6.80;62.50;;;;;;5031423;28;20291;-70
2022/04/18 02:58:50;;;;;;;15.05;7.80;;;6.80;62.50;;;;;;5012869;28;20624;-70
2022/04/18 03:01:18;;;;;;;12.95;7.40;;;6.70;62.60;;;;;;5032242;28;20284;-70
2022/04/18 03:03:48;;;;;;;9.57;6.40;;;6.60;62.70;;;;;;5034171;28;20286;-70
2022/04/18 03:06:17;;;;;;;8.60;4.93;;;6.50;62.80;;;;;;5034127;28;20201;-70
2022/04/18 03:08:45;;;;;;;7.75;4.97;;;6.40;62.80;;;;;;5026230;28;20826;-70
2022/04/18 03:11:13;;;;;;;9.50;5.40;;;6.40;63.10;;;;;;5014326;28;20269;-70
2022/04/18 03:13:44;;;;;;;8.57;4.80;;;6.50;63.20;;;;;;5028284;28;20229;-70
2022/04/18 03:16:30;;;;;;;6.93;3.65;;;6.50;63.40;;;;;;5017637;28;20709;-70
2022/04/18 03:19:00;;;;;;;7.90;4.50;;;6.60;63.50;;;;;;5029959;28;20237;-70
2022/04/18 03:21:29;;;;;;;8.80;5.22;;;6.70;63.50;;;;;;5019813;28;20214;-70
2022/04/18 03:24:00;;;;;;;9.00;5.50;;;6.80;63.50;;;;;;5030873;28;20225;-70
2022/04/18 03:26:49;;;;;;;16.55;8.50;;;6.80;63.30;;;;;;5031670;28;20202;-70
2022/04/18 03:29:20;;;;;;;17.98;10.18;;;6.80;63.30;;;;;;5031953;28;20297;-70
2022/04/18 03:31:49;;;;;;;30.67;14.35;;;6.70;63.20;;;;;;5030383;28;20274;-70
2022/04/18 03:34:26;;;;;;;25.73;12.20;;;6.70;63.30;;;;;;5034785;28;20901;-70
2022/04/18 03:39:54;;;;;;;26.02;11.98;;;6.70;63.60;;;;;;5002482;28;20232;-70
2022/04/18 03:42:30;;;;;;;29.60;14.02;;;6.80;63.70;;;;;;5036994;28;20224;-70
2022/04/18 03:45:03;;;;;;;24.77;12.55;;;6.80;63.60;;;;;;5031995;28;20212;-70
2022/04/18 03:47:33;;;;;;;15.93;9.50;;;6.90;63.60;;;;;;5034010;28;20225;-70
2022/04/18 03:50:03;;;;;;;11.43;6.60;;;6.90;63.50;;;;;;5034158;28;20197;-70
2022/04/18 03:52:34;;;;;;;11.23;7.07;;;6.90;63.60;;;;;;5019537;28;20213;-71
2022/04/18 03:55:12;;;;;;;10.07;5.60;;;6.90;63.60;;;;;;5021890;28;20227;-71
2022/04/18 03:57:41;;;;;;;13.40;7.40;;;6.90;63.60;;;;;;5019423;28;20197;-69
2022/04/18 04:00:11;;;;;;;13.75;7.68;;;6.90;63.50;;;;;;5020373;28;20206;-70
2022/04/18 04:02:43;;;;;;;28.33;15.63;;;6.90;63.30;;;;;;5020110;28;20236;-70
2022/04/18 04:05:16;;;;;;;32.42;17.52;;;6.80;63.20;;;;;;5031682;28;20209;-70
2022/04/18 04:07:48;;;;;;;16.50;8.30;;;6.70;63.20;;;;;;5033420;28;20707;-70
2022/04/18 04:10:42;;;;;;;36.42;16.08;;;6.60;63.20;;;;;;5014443;28;20746;-70
2022/04/18 04:13:11;;;;;;;38.33;15.55;;;6.50;63.30;;;;;;5021085;28;20745;-70
2022/04/18 04:15:45;;;;;;;25.52;13.05;;;6.40;63.40;;;;;;5017331;28;20237;-70
2022/04/18 04:18:22;;;;;;;19.05;10.35;;;6.40;63.40;;;;;;5018524;28;20548;-70
2022/04/18 04:20:52;;;;;;;23.48;10.95;;;6.20;63.50;;;;;;5011626;28;20203;-70
2022/04/18 04:23:20;;;;;;;10.45;5.97;;;6.20;63.60;;;;;;5009088;28;20260;-72
2022/04/18 04:26:20;;;;;;;14.27;6.53;;;6.10;63.70;;;;;;5011061;28;20198;-70
2022/04/18 04:28:50;;;;;;;19.77;10.80;;;6.10;63.90;;;;;;5037870;28;20212;-70
2022/04/18 04:31:47;;;;;;;20.00;10.85;;;6.10;64.00;;;;;;5006159;28;20333;-70
2022/04/18 04:34:16;;;;;;;23.27;11.85;;;6.00;64.00;;;;;;5013751;28;20221;-70
2022/04/18 04:36:52;;;;;;;9.25;6.10;;;6.00;64.10;;;;;;5029707;28;20671;-70
2022/04/18 04:39:24;;;;;;;9.35;5.03;;;6.00;64.20;;;;;;5015973;28;20217;-70
2022/04/18 04:41:53;;;;;;;7.90;4.40;;;6.00;64.40;;;;;;5016086;28;20299;-70
2022/04/18 04:44:21;;;;;;;8.98;5.53;;;6.10;64.70;;;;;;5017304;28;20228;-69
2022/04/18 04:46:55;;;;;;;16.60;7.72;;;6.10;64.50;;;;;;5032309;28;20242;-69
2022/04/18 04:49:24;;;;;;;91.65;38.97;;;6.10;64.50;;;;;;5017168;28;20202;-70
2022/04/18 04:52:14;;;;;;;113.53;47.30;;;6.20;64.50;;;;;;5019795;28;20209;-70
2022/04/18 04:54:43;;;;;;;69.75;32.78;;;6.20;64.40;;;;;;5035534;28;20683;-70
2022/04/18 04:57:17;;;;;;;28.75;15.25;;;6.10;64.40;;;;;;5011419;28;20304;-70
2022/04/18 05:00:12;;;;;;;38.22;16.17;;;6.10;64.50;;;;;;5015551;28;20212;-70
2022/04/18 05:03:02;;;;;;;131.93;53.40;;;6.30;65.90;;;;;;5012158;28;20237;-70
2022/04/18 05:05:31;;;;;;;26.67;12.30;;;7.30;67.40;;;;;;5017119;28;20240;-70
2022/04/18 05:08:01;;;;;;;12.88;6.80;;;8.50;66.50;;;;;;5019617;28;20216;-70
2022/04/18 05:10:32;;;;;;;14.67;7.47;;;9.70;65.10;;;;;;5014874;28;20296;-70
2022/04/18 05:13:06;;;;;;;19.50;10.30;;;10.80;63.80;;;;;;5011806;28;20551;-70
2022/04/18 05:15:34;;;;;;;11.00;6.73;;;11.80;62.40;;;;;;5020148;28;21206;-70
2022/04/18 05:18:21;;;;;;;12.97;6.60;;;12.70;61.20;;;;;;5026108;28;20451;-70
2022/04/18 05:20:49;;;;;;;19.80;10.23;;;13.70;60.00;;;;;;5040936;28;20515;-70
2022/04/18 05:23:21;;;;;;;18.10;9.70;;;14.50;59.10;;;;;;5020868;28;20494;-71
2022/04/18 05:25:53;;;;;;;10.13;6.30;;;15.30;58.00;;;;;;5038498;28;20465;-70
2022/04/18 05:28:26;;;;;;;9.83;5.83;;;16.10;57.00;;;;;;5027357;28;21282;-71
2022/04/18 05:31:03;;;;;;;11.63;5.50;;;16.90;56.00;;;;;;5035136;28;20484;-71
2022/04/18 05:33:32;;;;;;;8.93;5.90;;;17.70;54.80;;;;;;5016748;28;20643;-70
2022/04/18 05:36:10;;;;;;;11.60;6.60;;;18.30;53.90;;;;;;5031898;28;20510;-71
2022/04/18 05:38:40;;;;;;;41.90;20.63;;;19.10;52.90;;;;;;5014737;28;21075;-70
2022/04/18 05:41:28;;;;;;;41.97;21.73;;;19.70;51.50;;;;;;5014845;28;20506;-70
2022/04/18 05:43:56;;;;;;;28.10;15.37;;;20.20;50.40;;;;;;5012921;28;20484;-71
2022/04/18 05:46:31;;;;;;;14.53;8.20;;;20.30;48.60;;;;;;5013954;28;20504;-71
2022/04/18 05:48:59;;;;;;;20.73;12.30;;;19.10;47.10;;;;;;5033253;28;20491;-70
2022/04/18 05:51:27;;;;;;;20.40;10.67;;;17.40;47.30;;;;;;5015272;28;20552;-71
2022/04/18 05:53:56;;;;;;;10.40;7.10;;;15.80;48.00;;;;;;5014366;28;20516;-70
2022/04/18 05:56:31;;;;;;;11.30;8.53;;;14.50;49.00;;;;;;5016642;28;20502;-70
2022/04/18 05:59:01;;;;;;;10.70;8.07;;;13.30;49.80;;;;;;5031872;28;21019;-70
2022/04/18 06:01:48;;;;;;;11.47;8.20;;;12.40;50.70;;;;;;5016089;28;20693;-70
2022/04/18 06:04:29;;;;;;;13.43;7.70;;;11.60;51.70;;;;;;5028844;28;20950;-70
2022/04/18 06:07:29;;;;;;;9.07;5.83;;;11.00;52.60;;;;;;4993905;28;20584;-71
2022/04/18 06:10:27;;;;;;;10.10;5.60;;;10.50;53.50;;;;;;5011276;28;20464;-70
2022/04/18 06:13:14;;;;;;;7.80;5.27;;;10.10;54.30;;;;;;5013400;28;20466;-70
2022/04/18 06:15:42;;;;;;;11.63;5.60;;;9.80;54.90;;;;;;5026744;28;20575;-70
2022/04/18 06:18:11;;;;;;;9.50;5.30;;;9.50;55.40;;;;;;5013393;28;20508;-69
2022/04/18 06:20:44;;;;;;;8.77;5.10;;;9.30;56.00;;;;;;5031497;28;21100;-69
2022/04/18 06:23:12;;;;;;;11.30;4.90;;;9.20;56.60;;;;;;5029084;28;20583;-69
2022/04/18 06:25:43;;;;;;;9.40;5.83;;;9.10;57.10;;;;;;5027305;28;20472;-69
2022/04/18 06:28:12;;;;;;;7.20;4.70;;;9.00;57.50;;;;;;5018180;28;20472;-69
2022/04/18 06:30:44;;;;;;;6.20;4.07;;;9.00;58.00;;;;;;5015654;28;20484;-69
2022/04/18 06:33:35;;;;;;;6.60;4.03;;;9.00;58.30;;;;;;5007113;28;20530;-69
2022/04/18 06:36:06;;;;;;;7.57;4.70;;;9.00;58.60;;;;;;5010324;28;20498;-69
2022/04/18 06:38:43;;;;;;;13.10;4.77;;;9.00;59.00;;;;;;5008823;28;20472;-68
2022/04/18 06:41:22;;;;;;;7.30;4.60;;;9.10;59.20;;;;;;5028137;28;20456;-69
2022/04/18 06:43:50;;;;;;;6.30;4.03;;;9.10;59.50;;;;;;5028962;28;20495;-68
2022/04/18 06:46:19;;;;;;;7.03;4.47;;;9.10;59.80;;;;;;5019589;28;20467;-70
2022/04/18 06:48:48;;;;;;;8.07;4.77;;;9.10;60.00;;;;;;5019911;28;20974;-70
2022/04/18 06:51:34;;;;;;;9.80;5.37;;;9.20;60.30;;;;;;5011128;28;20448;-70
2022/04/18 06:54:28;;;;;;;12.37;6.30;;;9.20;60.40;;;;;;5001313;28;21023;-70
2022/04/18 06:57:11;;;;;;;10.37;5.30;;;9.20;60.60;;;;;;5026273;28;20461;-70
2022/04/18 06:59:54;;;;;;;8.73;5.10;;;9.30;60.80;;;;;;5026802;28;20518;-70
2022/04/18 07:02:24;;;;;;;8.20;4.37;;;9.30;60.90;;;;;;5014937;28;20484;-70
2022/04/18 07:04:54;;;;;;;10.30;5.33;;;9.40;61.10;;;;;;5036827;28;20488;-70
2022/04/18 07:07:22;;;;;;;11.40;4.37;;;9.50;61.20;;;;;;5015650;28;20497;-70
2022/04/18 07:09:50;;;;;;;11.00;5.23;;;9.50;61.30;;;;;;5033916;28;20460;-70
2022/04/18 07:12:22;;;;;;;22.87;9.97;;;9.60;61.40;;;;;;5028290;28;20484;-70
2022/04/18 07:14:54;;;;;;;10.20;4.70;;;9.70;61.50;;;;;;5020990;28;20838;-70
2022/04/18 07:17:22;;;;;;;10.30;6.17;;;9.70;61.50;;;;;;5023767;28;21093;-70
2022/04/18 07:19:50;;;;;;;6.60;3.57;;;9.80;61.30;;;;;;5024304;28;20462;-70
2022/04/18 07:22:21;;;;;;;8.73;4.47;;;9.80;61.30;;;;;;5015360;28;20490;-70
2022/04/18 07:24:51;;;;;;;8.33;4.10;;;9.90;61.30;;;;;;5018661;28;20845;-70
2022/04/18 07:27:23;;;;;;;6.90;4.23;;;10.00;61.30;;;;;;5014438;28;20451;-71
2022/04/18 07:29:58;;;;;;;10.13;4.50;;;10.00;61.30;;;;;;5032443;28;20488;-71
2022/04/18 07:32:26;;;;;;;10.40;6.27;;;10.10;61.30;;;;;;5017542;28;21293;-70
2022/04/18 07:35:01;;;;;;;7.80;4.80;;;10.20;61.20;;;;;;5016673;28;20465;-70
2022/04/18 07:38:48;;;;;;;7.40;3.73;;;10.20;61.20;;;;;;5020651;28;21243;-70
2022/04/18 07:40:26;;;;;;;11.03;4.07;;;10.30;61.10;;;;;;5041988;28;20958;-70
2022/04/18 07:42:56;;;;;;;7.10;4.40;;;10.40;61.20;;;;;;5020554;28;20491;-71
2022/04/18 07:45:24;;;;;;;7.53;3.50;;;10.50;61.10;;;;;;5026466;28;20462;-69
2022/04/18 07:47:53;;;;;;;8.13;4.03;;;10.60;61.00;;;;;;5041811;28;20973;-71
2022/04/18 07:51:31;;;;;;;10.77;3.73;;;10.60;60.80;;;;;;5035935;28;20459;-70
2022/04/18 07:53:10;;;;;;;9.17;4.97;;;10.70;60.70;;;;;;5022102;28;21003;-70
2022/04/18 07:55:38;;;;;;;5.90;3.50;;;10.80;60.70;;;;;;5017656;28;20472;-70
2022/04/18 07:58:07;;;;;;;5.40;3.23;;;10.80;60.40;;;;;;5018920;28;21198;-70
2022/04/18 08:00:35;;;;;;;6.97;3.57;;;10.80;60.50;;;;;;5011002;28;20471;-70
2022/04/18 08:03:04;;;;;;;6.87;3.90;;;10.90;60.40;;;;;;5033226;28;20491;-70
2022/04/18 08:05:59;;;;;;;6.47;3.23;;;10.90;60.40;;;;;;5016082;28;20470;-70
2022/04/18 08:08:37;;;;;;;7.00;3.70;;;11.00;60.30;;;;;;5017728;28;20458;-71
2022/04/18 08:11:05;;;;;;;11.00;5.83;;;11.10;60.20;;;;;;5034470;28;20464;-71
2022/04/18 08:13:35;;;;;;;13.10;8.00;;;11.20;60.20;;;;;;5028415;28;20464;-68
2022/04/18 08:16:38;;;;;;;34.13;13.63;;;11.20;60.00;;;;;;5021216;28;20487;-69
2022/04/18 08:19:28;;;;;;;11.73;5.10;;;11.30;59.70;;;;;;5021870;28;20467;-70
2022/04/18 08:21:56;;;;;;;7.80;4.37;;;11.30;59.80;;;;;;5017187;28;20490;-70
2022/04/18 08:24:29;;;;;;;7.87;4.13;;;11.40;59.60;;;;;;5022617;28;21044;-71
2022/04/18 08:27:20;;;;;;;12.23;3.67;;;11.50;59.30;;;;;;4993386;28;20570;-69
2022/04/18 08:30:02;;;;;;;12.10;5.73;;;11.50;58.40;;;;;;5033416;28;20513;-69
2022/04/18 08:32:50;;;;;;;10.50;5.73;;;11.60;58.90;;;;;;4996434;28;20508;-70
2022/04/18 08:35:18;;;;;;;11.97;7.37;;;11.60;58.40;;;;;;4994368;28;20981;-71
2022/04/18 08:37:48;;;;;;;7.37;3.90;;;11.70;58.20;;;;;;5012597;28;20454;-71
2022/04/18 08:40:21;;;;;;;6.63;3.30;;;11.80;57.80;;;;;;4997652;28;20473;-71
2022/04/18 08:42:55;;;;;;;7.27;4.47;;;11.90;57.70;;;;;;4996631;28;20494;-71
2022/04/18 08:45:26;;;;;;;8.63;4.37;;;12.00;57.30;;;;;;5013643;28;20477;-71
2022/04/18 08:53:31;;;;;;;6.90;2.93;;;12.20;56.90;;;;;;5002666;28;21898;-71
2022/04/18 08:56:01;;;;;;;7.40;3.37;;;12.30;56.90;;;;;;5001855;28;20480;-70
2022/04/18 08:58:31;;;;;;;7.13;3.87;;;12.30;56.50;;;;;;5004898;28;20453;-70
2022/04/18 09:01:03;;;;;;;10.20;4.20;;;12.30;56.10;;;;;;5015851;28;21004;-71
2022/04/18 09:03:46;;;;;;;8.30;4.00;;;12.40;55.90;;;;;;4994881;28;20517;-70
2022/04/18 09:06:16;;;;;;;7.50;3.67;;;12.40;55.70;;;;;;5009918;28;20464;-70
2022/04/18 09:08:57;;;;;;;8.20;3.40;;;12.40;55.50;;;;;;5000033;28;20965;-70
2022/04/18 09:11:31;;;;;;;8.53;3.90;;;12.50;55.40;;;;;;4991702;28;20458;-70
2022/04/18 09:14:07;;;;;;;8.50;4.30;;;12.50;55.50;;;;;;5012719;28;20596;-71
2022/04/18 09:16:38;;;;;;;7.73;4.03;;;12.60;55.00;;;;;;4997550;28;20488;-70
2022/04/18 09:19:12;;;;;;;6.33;3.20;;;12.60;55.00;;;;;;4997871;28;20460;-71
2022/04/18 09:21:57;;;;;;;8.50;3.60;;;12.60;54.90;;;;;;5007332;28;21069;-71
2022/04/18 09:24:34;;;;;;;9.10;4.63;;;12.70;54.50;;;;;;4999012;28;20488;-70
2022/04/18 09:27:14;;;;;;;8.00;3.73;;;12.80;54.60;;;;;;4998839;28;21044;-71
2022/04/18 09:29:46;;;;;;;6.30;2.90;;;12.80;53.90;;;;;;4993186;28;20519;-71
2022/04/18 09:32:23;;;;;;;7.63;3.50;;;12.80;54.00;;;;;;4995748;28;20595;-71
2022/04/18 09:35:11;;;;;;;7.13;3.40;;;12.90;53.70;;;;;;4998243;28;20547;-71
2022/04/18 09:37:48;;;;;;;7.00;3.90;;;13.00;53.70;;;;;;4995038;28;20558;-71
2022/04/18 09:40:26;;;;;;;7.60;3.77;;;13.00;52.90;;;;;;4999119;28;20481;-71
2022/04/18 09:42:56;;;;;;;7.40;3.73;;;13.00;53.30;;;;;;4998114;28;20579;-72
2022/04/18 09:45:27;;;;;;;24.80;13.67;;;13.10;53.10;;;;;;4998278;28;20472;-70
2022/04/18 09:48:00;;;;;;;6.70;4.30;;;13.10;53.10;;;;;;4995859;28;20468;-69
2022/04/18 09:53:18;;;;;;;7.97;3.43;;;13.20;52.90;;;;;;4999162;28;21118;-71
2022/04/18 09:55:47;;;;;;;5.17;2.90;;;13.20;52.70;;;;;;4992312;28;20458;-71
2022/04/18 09:58:15;;;;;;;7.30;3.47;;;13.30;52.50;;;;;;4991659;28;20471;-70
2022/04/18 10:01:06;;;;;;;6.10;2.97;;;13.30;52.50;;;;;;5000359;28;21406;-71
2022/04/18 10:03:37;;;;;;;6.87;3.57;;;13.30;52.00;;;;;;5012039;28;20533;-70
2022/04/18 10:06:06;;;;;;;11.30;3.50;;;13.30;52.20;;;;;;5013579;28;20465;-71
2022/04/18 10:08:35;;;;;;;4.80;2.00;;;13.40;52.30;;;;;;5013094;28;20462;-71
2022/04/18 10:11:07;;;;;;;7.80;3.60;;;13.40;52.40;;;;;;5016896;28;20500;-71
2022/04/18 10:13:36;;;;;;;6.70;3.27;;;13.50;52.50;;;;;;5018550;28;21399;-71
2022/04/18 10:16:06;;;;;;;9.63;4.00;;;13.50;52.20;;;;;;5017227;28;20495;-71
2022/04/18 10:18:42;;;;;;;7.10;3.47;;;13.60;52.20;;;;;;5015701;28;20468;-70
2022/04/18 10:21:20;;;;;;;7.33;3.47;;;13.60;52.00;;;;;;5003524;28;20456;-71
2022/04/18 10:24:20;;;;;;;9.53;3.53;;;13.60;52.00;;;;;;5028333;28;20484;-71
2022/04/18 10:27:32;;;;;;;7.90;3.60;;;13.70;52.00;;;;;;5012606;28;20495;-71
2022/04/18 10:30:02;;;;;;;8.50;3.77;;;13.70;52.10;;;;;;5017204;28;20514;-71
2022/04/18 10:32:31;;;;;;;5.93;3.40;;;13.70;52.20;;;;;;5014370;28;21103;-71
2022/04/18 10:35:02;;;;;;;8.30;3.53;;;13.70;52.10;;;;;;5012533;28;20459;-69
2022/04/18 10:37:31;;;;;;;5.93;2.80;;;13.70;51.90;;;;;;5014462;28;20464;-69
2022/04/18 10:40:01;;;;;;;6.47;3.43;;;13.70;51.90;;;;;;5016677;28;20477;-72
2022/04/18 10:42:33;;;;;;;8.97;4.50;;;13.70;52.30;;;;;;5014349;28;20514;-72
2022/04/18 10:45:05;;;;;;;11.00;5.73;;;13.80;52.20;;;;;;5012987;28;20498;-72
2022/04/18 10:48:05;;;;;;;6.80;3.30;;;13.80;52.00;;;;;;5010865;28;20475;-70
2022/04/18 10:50:37;;;;;;;6.10;2.80;;;13.90;52.00;;;;;;5010055;28;20461;-70
2022/04/18 10:53:18;;;;;;;9.77;4.43;;;13.90;51.90;;;;;;5016312;28;20485;-70
2022/04/18 10:56:12;;;;;;;7.30;3.60;;;13.90;52.00;;;;;;5016649;28;20495;-70
2022/04/18 10:58:45;;;;;;;7.50;3.57;;;14.00;51.80;;;;;;5011781;28;21203;-70
2022/04/18 11:01:15;;;;;;;10.40;3.60;;;14.10;51.80;;;;;;5019259;28;20488;-71
2022/04/18 11:03:55;;;;;;;6.20;3.13;;;14.10;51.70;;;;;;5016633;28;20504;-71
2022/04/18 11:06:44;;;;;;;9.00;4.13;;;14.20;51.60;;;;;;5022063;28;20490;-72
2022/04/18 11:09:14;;;;;;;6.73;3.33;;;14.20;51.10;;;;;;5019088;28;20519;-71
2022/04/18 11:11:46;;;;;;;6.83;3.30;;;14.20;51.30;;;;;;5017592;28;20500;-71
2022/04/18 11:14:16;;;;;;;9.73;3.57;;;14.20;51.30;;;;;;5022720;28;20483;-69
2022/04/18 11:16:50;;;;;;;5.67;2.70;;;14.20;51.30;;;;;;5019751;28;20475;-72
2022/04/18 11:19:20;;;;;;;8.33;3.20;;;14.20;51.30;;;;;;5017447;28;20514;-71
2022/04/18 11:22:20;;;;;;;6.40;2.77;;;14.20;51.10;;;;;;5017850;28;20461;-70
2022/04/18 11:25:00;;;;;;;6.37;3.33;;;14.20;50.90;;;;;;5014750;28;20495;-71
2022/04/18 11:27:37;;;;;;;6.10;3.57;;;14.30;50.90;;;;;;5013987;28;20973;-71
2022/04/18 11:30:08;;;;;;;5.70;3.00;;;14.30;50.60;;;;;;5019352;28;21000;-70
2022/04/18 11:32:38;;;;;;;6.57;2.97;;;14.30;50.70;;;;;;5025755;28;20494;-71
2022/04/18 11:35:14;;;;;;;7.73;2.80;;;14.30;50.70;;;;;;5020834;28;20522;-71
2022/04/18 11:37:45;;;;;;;6.70;2.80;;;14.30;50.60;;;;;;5016238;28;21064;-71
2022/04/18 11:40:16;;;;;;;7.00;3.43;;;14.30;50.90;;;;;;5015557;28;21035;-70
2022/04/18 11:42:45;;;;;;;5.50;2.63;;;14.40;50.40;;;;;;5015944;28;21079;-70
2022/04/18 11:45:24;;;;;;;6.50;2.77;;;14.40;50.60;;;;;;5018971;28;20475;-70
2022/04/18 11:47:53;;;;;;;5.40;2.90;;;14.50;50.30;;;;;;5014004;28;20452;-71
2022/04/18 11:50:22;;;;;;;8.03;2.70;;;14.50;50.40;;;;;;5017033;28;20464;-71
2022/04/18 11:53:02;;;;;;;9.13;3.10;;;14.60;50.40;;;;;;5013604;28;20486;-71
2022/04/18 11:55:30;;;;;;;7.13;3.17;;;14.60;50.10;;;;;;5018714;28;20468;-71
2022/04/18 11:58:04;;;;;;;7.33;2.83;;;14.60;50.20;;;;;;5019104;28;20475;-71
2022/04/18 12:08:50;;;;;;;6.20;3.13;;;14.80;50.30;;;;;;5028361;28;20443;-71
2022/04/18 12:11:18;;;;;;;5.67;3.10;;;14.90;50.00;;;;;;5032059;28;20447;-70
2022/04/18 12:13:47;;;;;;;7.53;2.87;;;14.90;49.90;;;;;;5021649;28;20480;-70
2022/04/18 12:16:26;;;;;;;7.23;3.27;;;15.00;49.80;;;;;;5028272;28;21017;-70
2022/04/18 12:18:55;;;;;;;5.20;2.57;;;15.00;49.60;;;;;;5028473;28;20522;-70
2022/04/18 12:21:24;;;;;;;4.70;2.40;;;15.00;49.60;;;;;;5019006;28;20474;-70
2022/04/18 12:23:55;;;;;;;7.00;2.43;;;15.00;49.50;;;;;;5016902;28;20472;-70
2022/04/18 12:26:26;;;;;;;6.10;2.80;;;15.10;49.40;;;;;;5019598;28;20476;-70
2022/04/18 12:29:00;;;;;;;5.77;2.77;;;15.10;49.50;;;;;;5021560;28;20450;-70
2022/04/18 12:31:28;;;;;;;5.33;2.47;;;15.10;49.40;;;;;;5019550;28;20479;-70
2022/04/18 12:33:58;;;;;;;5.27;2.87;;;15.20;49.20;;;;;;5020436;28;20574;-71
2022/04/18 12:36:29;;;;;;;8.97;2.67;;;15.20;49.20;;;;;;5016766;28;20456;-71
2022/04/18 12:38:58;;;;;;;5.83;2.60;;;15.20;49.10;;;;;;5018120;28;20473;-71
2022/04/18 12:41:30;;;;;;;6.60;2.53;;;15.20;49.20;;;;;;5016661;28;20472;-71
2022/04/18 12:43:58;;;;;;;5.87;3.00;;;15.20;49.20;;;;;;5033006;28;20492;-71
2022/04/18 12:46:30;;;;;;;6.63;2.30;;;15.20;49.40;;;;;;5020240;28;20538;-71
2022/04/18 12:48:58;;;;;;;5.40;2.40;;;15.30;49.00;;;;;;5018221;28;21089;-69
2022/04/18 12:51:33;;;;;;;6.30;2.60;;;15.30;49.10;;;;;;5017121;28;20899;-71
2022/04/18 12:54:03;;;;;;;10.00;2.50;;;15.30;48.90;;;;;;5015743;28;20494;-71
2022/04/18 12:56:31;;;;;;;6.63;3.00;;;15.30;48.90;;;;;;5019699;28;20457;-69
2022/04/18 12:59:02;;;;;;;5.83;2.83;;;15.30;48.90;;;;;;5030774;28;20582;-71
2022/04/18 13:01:32;;;;;;;8.27;2.50;;;15.30;48.90;;;;;;5012569;28;20523;-70
2022/04/18 13:04:01;;;;;;;8.57;2.40;;;15.30;49.10;;;;;;5013347;28;20504;-70
2022/04/18 13:06:31;;;;;;;5.07;2.40;;;15.30;49.10;;;;;;5016398;28;20480;-70
2022/04/18 13:09:04;;;;;;;8.40;2.60;;;15.30;49.10;;;;;;5015029;28;20456;-70
2022/04/18 13:11:41;;;;;;;5.07;2.30;;;15.40;48.80;;;;;;5013271;28;20457;-70
2022/04/18 13:14:10;;;;;;;4.10;1.87;;;15.40;48.80;;;;;;5014517;28;20522;-71
2022/04/18 13:16:40;;;;;;;3.87;1.70;;;15.40;49.10;;;;;;5016964;28;20484;-70
2022/04/18 13:19:10;;;;;;;4.03;1.77;;;15.50;48.80;;;;;;5021882;28;20469;-71
2022/04/18 13:21:38;;;;;;;4.73;1.90;;;15.60;48.80;;;;;;5019098;28;20476;-71
2022/04/18 13:24:08;;;;;;;4.77;1.77;;;15.60;48.70;;;;;;5020252;28;20487;-70
2022/04/18 13:26:37;;;;;;;5.77;1.67;;;15.70;48.10;;;;;;5016200;28;20518;-70
2022/04/18 13:29:06;;;;;;;4.20;1.70;;;15.60;47.30;;;;;;5016749;28;20463;-72
2022/04/18 13:31:34;;;;;;;6.50;1.53;;;15.70;47.50;;;;;;5012977;28;20481;-71
2022/04/18 13:34:02;;;;;;;5.73;1.73;;;15.80;47.90;;;;;;5020302;28;21018;-71
2022/04/18 13:36:37;;;;;;;4.57;1.80;;;15.80;47.60;;;;;;5013944;28;20460;-70
2022/04/18 13:39:07;;;;;;;4.40;2.00;;;15.80;47.40;;;;;;5014879;28;20471;-70